createdAt,value
2018-12-26T00:02:28.380Z,72.79
2018-12-26T00:04:57.713Z,72.76
2018-12-26T00:07:26.976Z,72.72
2018-12-26T00:09:56.254Z,72.65
2018-12-26T00:12:25.594Z,72.38
2018-12-26T00:14:54.866Z,72.42
2018-12-26T00:17:24.124Z,72.22
2018-12-26T00:19:53.521Z,72.44
2018-12-26T00:22:22.698Z,72.09
2018-12-26T00:24:51.944Z,71.74
2018-12-26T00:27:21.220Z,71.68
2018-12-26T00:29:50.496Z,71.78
2018-12-26T00:32:19.806Z,71.66
2018-12-26T00:34:49.101Z,71.90
2018-12-26T00:37:18.420Z,71.82
2018-12-26T00:39:48.102Z,71.43
2018-12-26T00:42:16.991Z,71.46
2018-12-26T00:44:46.324Z,71.27
2018-12-26T00:47:15.572Z,71.50
2018-12-26T00:49:44.859Z,71.31
2018-12-26T00:52:14.102Z,71.28
2018-12-26T00:54:43.446Z,71.11
2018-12-26T00:57:12.733Z,71.34
2018-12-26T00:59:42.002Z,71.40
2018-12-26T01:02:11.241Z,71.36
2018-12-26T01:04:40.491Z,71.26
2018-12-26T01:07:09.794Z,71.04
2018-12-26T01:09:39.099Z,71.17
2018-12-26T01:12:08.380Z,70.94
2018-12-26T01:14:37.800Z,70.99
2018-12-26T01:17:07.003Z,71.02
2018-12-26T01:19:36.257Z,71.14
2018-12-26T01:22:05.625Z,71.08
2018-12-26T01:24:34.922Z,71.26
2018-12-26T01:27:04.192Z,71.16
2018-12-26T01:29:33.444Z,71.42
2018-12-26T01:32:02.704Z,71.46
2018-12-26T01:34:31.956Z,71.46
2018-12-26T01:37:01.414Z,71.25
2018-12-26T01:39:30.723Z,71.19
2018-12-26T01:42:00.000Z,71.42
2018-12-26T01:44:29.345Z,71.79
2018-12-26T01:46:58.674Z,71.61
2018-12-26T01:49:27.889Z,71.54
2018-12-26T01:51:57.137Z,71.54
2018-12-26T01:54:26.480Z,71.58
2018-12-26T01:56:55.697Z,72.04
2018-12-26T01:59:24.976Z,71.87
2018-12-26T02:01:54.252Z,71.92
2018-12-26T02:04:23.465Z,71.85
2018-12-26T02:06:52.753Z,72.00
2018-12-26T02:09:21.992Z,72.17
2018-12-26T02:11:51.245Z,72.22
2018-12-26T02:14:20.522Z,72.45
2018-12-26T02:16:49.796Z,72.52
2018-12-26T02:19:19.072Z,72.58
2018-12-26T02:21:48.335Z,72.49
2018-12-26T02:24:17.622Z,72.56
2018-12-26T02:26:46.906Z,72.53
2018-12-26T02:29:16.158Z,72.97
2018-12-26T02:31:45.410Z,72.91
2018-12-26T02:34:14.687Z,73.14
2018-12-26T02:36:43.980Z,73.31
2018-12-26T02:39:13.238Z,72.83
2018-12-26T02:41:42.554Z,73.15
2018-12-26T02:44:11.894Z,73.00
2018-12-26T02:46:41.229Z,73.58
2018-12-26T02:49:10.510Z,73.50
2018-12-26T02:51:39.839Z,73.41
2018-12-26T02:54:09.086Z,73.26
2018-12-26T02:56:46.618Z,73.09
2018-12-26T02:59:07.642Z,73.32
2018-12-26T03:01:36.906Z,73.60
2018-12-26T03:04:06.202Z,73.75
2018-12-26T03:06:35.433Z,74.17
2018-12-26T03:09:07.396Z,74.17
2018-12-26T03:11:36.684Z,74.22
2018-12-26T03:14:05.867Z,74.49
2018-12-26T03:16:35.222Z,74.64
2018-12-26T03:19:04.497Z,75.00
2018-12-26T03:21:33.782Z,75.34
2018-12-26T03:24:03.066Z,75.44
2018-12-26T03:26:32.346Z,75.31
2018-12-26T03:29:01.689Z,75.69
2018-12-26T03:31:30.967Z,75.65
2018-12-26T03:34:00.301Z,75.88
2018-12-26T03:36:29.587Z,76.09
2018-12-26T03:38:58.864Z,76.38
2018-12-26T03:41:28.139Z,76.29
2018-12-26T03:43:57.421Z,76.28
2018-12-26T03:46:26.670Z,76.68
2018-12-26T03:48:55.966Z,76.78
2018-12-26T03:51:25.211Z,77.27
2018-12-26T03:53:54.486Z,77.50
2018-12-26T03:56:23.833Z,77.53
2018-12-26T03:58:53.094Z,77.80
2018-12-26T04:01:22.323Z,77.89
2018-12-26T04:03:51.646Z,77.93
2018-12-26T04:06:20.920Z,78.38
2018-12-26T04:08:50.218Z,78.40
2018-12-26T04:11:19.489Z,78.73
2018-12-26T04:13:49.232Z,78.71
2018-12-26T04:16:18.538Z,78.99
2018-12-26T04:18:47.921Z,79.48
2018-12-26T04:21:17.201Z,79.75
2018-12-26T04:23:46.530Z,79.85
2018-12-26T04:26:15.851Z,79.87
2018-12-26T04:28:45.088Z,80.24
2018-12-26T04:31:14.350Z,80.43
2018-12-26T04:33:43.622Z,80.43
2018-12-26T04:36:12.886Z,80.44
2018-12-26T04:38:42.261Z,80.53
2018-12-26T04:41:11.522Z,80.80
2018-12-26T04:43:40.792Z,81.27
2018-12-26T04:46:10.036Z,81.52
2018-12-26T04:48:39.319Z,81.29
2018-12-26T04:51:08.626Z,81.47
2018-12-26T04:53:37.962Z,81.20
2018-12-26T04:56:07.238Z,81.22
2018-12-26T04:58:36.502Z,81.21
2018-12-26T05:01:05.800Z,81.08
2018-12-26T05:03:35.176Z,81.33
2018-12-26T05:06:04.435Z,81.41
2018-12-26T05:08:33.700Z,81.45
2018-12-26T05:11:03.004Z,81.76
2018-12-26T05:13:32.228Z,82.17
2018-12-26T05:16:01.488Z,82.34
2018-12-26T05:18:30.725Z,82.24
2018-12-26T05:21:00.007Z,82.27
2018-12-26T05:23:29.342Z,81.99
2018-12-26T05:25:58.657Z,82.31
2018-12-26T05:28:27.902Z,82.17
2018-12-26T05:30:57.156Z,82.25
2018-12-26T05:33:26.396Z,82.21
2018-12-26T05:35:55.630Z,82.47
2018-12-26T05:38:24.876Z,82.49
2018-12-26T05:40:54.174Z,82.64
2018-12-26T05:43:23.451Z,82.70
2018-12-26T05:45:52.694Z,82.76
2018-12-26T05:48:21.966Z,83.22
2018-12-26T05:50:54.024Z,83.47
2018-12-26T05:53:23.289Z,83.89
2018-12-26T05:55:52.646Z,84.23
2018-12-26T05:58:21.920Z,84.47
2018-12-26T06:00:53.774Z,85.07
2018-12-26T06:03:23.072Z,85.89
2018-12-26T06:05:52.352Z,86.29
2018-12-26T06:08:21.679Z,86.64
2018-12-26T06:10:50.977Z,86.72
2018-12-26T06:13:20.229Z,87.16
2018-12-26T06:15:49.498Z,87.13
2018-12-26T06:18:18.743Z,87.22
2018-12-26T06:20:48.025Z,87.54
2018-12-26T06:23:17.386Z,87.86
2018-12-26T06:25:46.650Z,87.88
2018-12-26T06:28:15.979Z,88.10
2018-12-26T06:30:45.218Z,87.96
2018-12-26T06:33:14.477Z,88.28
2018-12-26T06:35:43.735Z,88.46
2018-12-26T06:38:13.104Z,88.88
2018-12-26T06:40:42.499Z,88.90
2018-12-26T06:43:11.764Z,88.95
2018-12-26T06:45:40.981Z,89.17
2018-12-26T06:48:10.285Z,89.17
2018-12-26T06:50:39.551Z,89.24
2018-12-26T06:53:08.819Z,89.10
2018-12-26T06:55:38.111Z,89.15
2018-12-26T06:58:07.369Z,89.19
2018-12-26T07:00:36.633Z,89.04
2018-12-26T07:03:05.988Z,89.29
2018-12-26T07:05:35.275Z,89.44
2018-12-26T07:08:04.574Z,89.45
2018-12-26T07:10:33.818Z,89.39
2018-12-26T07:13:03.216Z,89.45
2018-12-26T07:15:32.492Z,89.35
2018-12-26T07:18:01.805Z,89.40
2018-12-26T07:20:31.039Z,89.61
2018-12-26T07:23:00.340Z,89.31
2018-12-26T07:25:29.632Z,89.47
2018-12-26T07:27:58.904Z,89.26
2018-12-26T07:30:28.199Z,89.07
2018-12-26T07:32:57.496Z,88.85
2018-12-26T07:35:26.758Z,88.27
2018-12-26T07:37:56.110Z,88.46
2018-12-26T07:40:25.430Z,88.59
2018-12-26T07:42:54.698Z,88.63
2018-12-26T07:45:23.982Z,88.75
2018-12-26T07:47:53.258Z,88.89
2018-12-26T07:50:22.550Z,88.57
2018-12-26T07:52:51.846Z,88.57
2018-12-26T07:55:21.225Z,88.64
2018-12-26T07:57:50.490Z,88.76
2018-12-26T08:00:19.730Z,88.83
2018-12-26T08:02:49.016Z,88.98
2018-12-26T08:05:18.258Z,89.05
2018-12-26T08:07:47.542Z,89.20
2018-12-26T08:10:16.795Z,89.28
2018-12-26T08:12:46.098Z,89.17
2018-12-26T08:15:15.376Z,89.22
2018-12-26T08:17:44.654Z,89.73
2018-12-26T08:20:13.918Z,89.54
2018-12-26T08:22:43.158Z,89.49
2018-12-26T08:25:12.538Z,89.32
2018-12-26T08:27:41.814Z,89.39
2018-12-26T08:30:11.076Z,89.49
2018-12-26T08:32:40.362Z,89.18
2018-12-26T08:35:09.712Z,89.25
2018-12-26T08:37:38.978Z,89.20
2018-12-26T08:40:08.282Z,89.38
2018-12-26T08:42:37.565Z,89.28
2018-12-26T08:45:07.148Z,89.09
2018-12-26T08:47:36.426Z,89.33
2018-12-26T08:50:06.963Z,89.27
2018-12-26T08:52:36.255Z,89.45
2018-12-26T08:55:05.607Z,89.81
2018-12-26T08:57:34.852Z,89.93
2018-12-26T09:00:04.484Z,89.94
2018-12-26T09:02:33.726Z,89.90
2018-12-26T09:05:03.002Z,89.78
2018-12-26T09:07:32.256Z,89.79
2018-12-26T09:10:01.516Z,89.71
2018-12-26T09:12:30.785Z,89.82
2018-12-26T09:15:00.158Z,89.76
2018-12-26T09:17:29.310Z,89.70
2018-12-26T09:19:58.689Z,89.86
2018-12-26T09:22:27.977Z,89.99
2018-12-26T09:24:57.297Z,90.10
2018-12-26T09:27:26.578Z,89.78
2018-12-26T09:29:55.883Z,89.82
2018-12-26T09:32:25.175Z,89.94
2018-12-26T09:34:54.432Z,89.83
2018-12-26T09:37:23.759Z,89.96
2018-12-26T09:39:53.082Z,89.89
2018-12-26T09:42:22.409Z,90.01
2018-12-26T09:44:54.600Z,89.96
2018-12-26T09:47:21.129Z,90.10
2018-12-26T09:49:50.493Z,90.29
2018-12-26T09:52:19.797Z,90.42
2018-12-26T09:54:49.368Z,90.74
2018-12-26T09:57:18.489Z,90.43
2018-12-26T09:59:47.823Z,90.64
2018-12-26T10:02:17.083Z,90.78
2018-12-26T10:04:46.345Z,90.60
2018-12-26T10:07:15.687Z,90.75
2018-12-26T10:09:44.986Z,90.89
2018-12-26T10:12:14.309Z,91.10
2018-12-26T10:14:43.597Z,91.10
2018-12-26T10:17:12.850Z,91.24
2018-12-26T10:19:42.214Z,91.26
2018-12-26T10:22:11.501Z,91.20
2018-12-26T10:24:40.775Z,91.06
2018-12-26T10:27:10.135Z,91.29
2018-12-26T10:29:39.519Z,91.12
2018-12-26T10:32:08.781Z,91.25
2018-12-26T10:34:38.112Z,91.27
2018-12-26T10:37:07.437Z,91.56
2018-12-26T10:39:36.703Z,91.55
2018-12-26T10:42:05.995Z,91.65
2018-12-26T10:44:35.258Z,91.60
2018-12-26T10:47:04.537Z,91.59
2018-12-26T10:49:33.806Z,91.41
2018-12-26T10:52:03.142Z,91.66
2018-12-26T10:54:32.406Z,91.59
2018-12-26T10:57:01.684Z,91.48
2018-12-26T10:59:31.031Z,91.66
2018-12-26T11:02:00.292Z,91.74
2018-12-26T11:04:29.543Z,91.77
2018-12-26T11:06:58.796Z,91.79
2018-12-26T11:09:28.232Z,91.65
2018-12-26T11:11:57.516Z,91.65
2018-12-26T11:14:26.837Z,91.66
2018-12-26T11:16:56.147Z,91.84
2018-12-26T11:19:25.534Z,91.75
2018-12-26T11:21:54.881Z,92.07
2018-12-26T11:24:24.199Z,91.87
2018-12-26T11:26:53.554Z,92.01
2018-12-26T11:29:22.833Z,92.01
2018-12-26T11:31:52.167Z,92.22
2018-12-26T11:34:21.428Z,92.12
2018-12-26T11:36:50.683Z,92.02
2018-12-26T11:39:19.978Z,92.09
2018-12-26T11:41:49.231Z,92.09
2018-12-26T11:44:18.530Z,92.22
2018-12-26T11:46:47.822Z,92.33
2018-12-26T11:49:17.165Z,92.12
2018-12-26T11:51:46.436Z,92.03
2018-12-26T11:54:15.723Z,91.99
2018-12-26T11:56:44.979Z,91.94
2018-12-26T11:59:14.251Z,92.03
2018-12-26T12:01:43.495Z,92.04
2018-12-26T12:04:12.767Z,92.11
2018-12-26T12:06:42.471Z,92.15
2018-12-26T12:09:11.753Z,92.06
2018-12-26T12:11:41.072Z,91.96
2018-12-26T12:14:10.475Z,91.94
2018-12-26T12:16:39.879Z,92.07
2018-12-26T12:19:09.143Z,91.85
2018-12-26T12:21:38.484Z,91.84
2018-12-26T12:24:07.863Z,91.97
2018-12-26T12:26:37.169Z,92.01
2018-12-26T12:29:06.498Z,92.15
2018-12-26T12:31:35.883Z,92.05
2018-12-26T12:34:05.177Z,91.94
2018-12-26T12:36:34.484Z,92.04
2018-12-26T12:39:04.367Z,92.00
2018-12-26T12:41:33.626Z,91.89
2018-12-26T12:44:02.959Z,91.79
2018-12-26T12:46:32.281Z,91.79
2018-12-26T12:49:01.591Z,91.94
2018-12-26T12:51:30.870Z,92.12
2018-12-26T12:54:00.196Z,92.12
2018-12-26T12:56:29.448Z,91.90
2018-12-26T12:58:58.693Z,91.96
2018-12-26T13:01:28.021Z,92.01
2018-12-26T13:03:57.361Z,91.98
2018-12-26T13:06:26.806Z,91.97
2018-12-26T13:08:56.108Z,91.82
2018-12-26T13:11:25.419Z,91.52
2018-12-26T13:13:54.899Z,91.52
2018-12-26T13:16:24.144Z,91.77
2018-12-26T13:18:53.419Z,91.90
2018-12-26T13:21:22.673Z,91.84
2018-12-26T13:23:52.041Z,91.90
2018-12-26T13:26:21.308Z,91.81
2018-12-26T13:28:50.611Z,91.77
2018-12-26T13:31:20.023Z,91.87
2018-12-26T13:33:49.495Z,91.76
2018-12-26T13:36:18.822Z,91.71
2018-12-26T13:38:48.132Z,91.77
2018-12-26T13:41:17.448Z,91.74
2018-12-26T13:43:46.729Z,91.95
2018-12-26T13:46:16.057Z,91.93
2018-12-26T13:48:45.423Z,92.05
2018-12-26T13:51:14.755Z,91.97
2018-12-26T13:53:44.151Z,92.05
2018-12-26T13:56:13.613Z,92.06
2018-12-26T13:58:42.911Z,92.06
2018-12-26T14:01:12.295Z,92.02
2018-12-26T14:03:41.648Z,92.17
2018-12-26T14:06:10.989Z,92.19
2018-12-26T14:08:40.276Z,92.31
2018-12-26T14:11:09.552Z,92.31
2018-12-26T14:13:38.861Z,92.23
2018-12-26T14:16:08.361Z,92.21
2018-12-26T14:18:37.686Z,92.29
2018-12-26T14:21:07.162Z,92.36
2018-12-26T14:23:36.391Z,92.25
2018-12-26T14:26:05.765Z,92.39
2018-12-26T14:28:35.031Z,92.47
2018-12-26T14:31:04.319Z,92.55
2018-12-26T14:33:33.657Z,92.47
2018-12-26T14:36:03.447Z,92.53
2018-12-26T14:38:32.263Z,92.52
2018-12-26T14:41:01.592Z,92.77
2018-12-26T14:43:30.884Z,92.59
2018-12-26T14:46:00.213Z,92.71
2018-12-26T14:48:29.472Z,92.74
2018-12-26T14:50:58.782Z,92.91
2018-12-26T14:53:28.127Z,92.76
2018-12-26T14:55:57.419Z,92.99
2018-12-26T14:58:26.783Z,93.03
2018-12-26T15:00:56.088Z,93.12
2018-12-26T15:03:25.341Z,93.22
2018-12-26T15:05:54.781Z,93.22
2018-12-26T15:08:24.059Z,93.11
2018-12-26T15:10:53.379Z,93.05
2018-12-26T15:13:22.817Z,93.05
2018-12-26T15:15:52.089Z,93.05
2018-12-26T15:18:21.419Z,93.01
2018-12-26T15:20:50.685Z,92.98
2018-12-26T15:23:20.009Z,93.04
2018-12-26T15:25:49.415Z,93.10
2018-12-26T15:28:19.375Z,92.97
2018-12-26T15:30:48.653Z,92.90
2018-12-26T15:33:18.326Z,92.84
2018-12-26T15:35:47.663Z,92.86
2018-12-26T15:38:17.532Z,92.77
2018-12-26T15:40:46.852Z,92.84
2018-12-26T15:43:16.139Z,92.72
2018-12-26T15:45:45.459Z,92.80
2018-12-26T15:48:14.764Z,92.68
2018-12-26T15:50:44.065Z,92.66
2018-12-26T15:53:13.312Z,92.56
2018-12-26T15:55:42.639Z,92.54
2018-12-26T15:58:11.969Z,92.64
2018-12-26T16:00:41.251Z,92.61
2018-12-26T16:03:10.568Z,92.46
2018-12-26T16:05:39.839Z,92.22
2018-12-26T16:08:09.138Z,92.29
2018-12-26T16:10:38.453Z,92.30
2018-12-26T16:13:07.773Z,92.37
2018-12-26T16:15:37.063Z,92.35
2018-12-26T16:18:06.383Z,92.19
2018-12-26T16:20:35.652Z,92.00
2018-12-26T16:23:04.939Z,92.19
2018-12-26T16:25:34.269Z,92.09
2018-12-26T16:28:03.580Z,92.15
2018-12-26T16:30:32.902Z,91.84
2018-12-26T16:33:02.160Z,91.89
2018-12-26T16:35:31.499Z,92.09
2018-12-26T16:38:01.738Z,91.76
2018-12-26T16:40:30.291Z,91.83
2018-12-26T16:42:59.561Z,91.70
2018-12-26T16:45:28.992Z,92.02
2018-12-26T16:47:58.260Z,92.02
2018-12-26T16:50:27.605Z,91.91
2018-12-26T16:52:56.881Z,91.88
2018-12-26T16:55:26.198Z,91.90
2018-12-26T16:57:55.477Z,91.81
2018-12-26T17:00:24.787Z,91.75
2018-12-26T17:02:54.055Z,91.78
2018-12-26T17:05:23.323Z,91.54
2018-12-26T17:07:52.604Z,91.47
2018-12-26T17:10:21.902Z,91.02
2018-12-26T17:12:51.255Z,91.27
2018-12-26T17:15:20.517Z,90.93
2018-12-26T17:17:49.798Z,91.13
2018-12-26T17:20:19.189Z,91.36
2018-12-26T17:22:48.521Z,91.24
2018-12-26T17:25:17.820Z,91.42
2018-12-26T17:27:47.076Z,91.49
2018-12-26T17:30:16.358Z,91.73
2018-12-26T17:32:45.718Z,91.73
2018-12-26T17:35:14.937Z,91.66
2018-12-26T17:37:44.204Z,91.72
2018-12-26T17:40:13.557Z,91.52
2018-12-26T17:42:42.801Z,91.43
2018-12-26T17:45:13.365Z,91.33
2018-12-26T17:47:42.630Z,91.05
2018-12-26T17:50:44.216Z,91.06
2018-12-26T17:53:23.444Z,91.20
2018-12-26T17:56:12.979Z,91.08
2018-12-26T17:58:50.921Z,91.15
2018-12-26T18:01:29.568Z,91.25
2018-12-26T18:03:58.836Z,91.37
2018-12-26T18:06:28.133Z,91.31
2018-12-26T18:08:57.443Z,91.26
2018-12-26T18:11:29.532Z,91.45
2018-12-26T18:13:58.810Z,91.27
2018-12-26T18:16:28.113Z,91.41
2018-12-26T18:18:57.381Z,91.54
2018-12-26T18:21:26.709Z,91.55
2018-12-26T18:23:56.093Z,91.66
2018-12-26T18:26:25.418Z,91.74
2018-12-26T18:28:54.687Z,91.66
2018-12-26T18:31:23.983Z,91.74
2018-12-26T18:33:53.326Z,91.87
2018-12-26T18:36:22.591Z,92.06
2018-12-26T18:38:51.913Z,92.11
2018-12-26T18:41:21.192Z,92.28
2018-12-26T18:43:50.502Z,92.36
2018-12-26T18:46:19.815Z,92.43
2018-12-26T18:48:49.091Z,92.44
2018-12-26T18:51:18.374Z,92.20
2018-12-26T18:53:47.676Z,92.10
2018-12-26T18:56:16.957Z,92.06
2018-12-26T18:58:46.335Z,92.18
2018-12-26T19:01:15.604Z,92.31
2018-12-26T19:03:44.899Z,92.32
2018-12-26T19:06:14.208Z,92.37
2018-12-26T19:08:43.485Z,92.43
2018-12-26T19:11:12.806Z,92.35
2018-12-26T19:13:42.061Z,92.54
2018-12-26T19:16:11.410Z,92.55
2018-12-26T19:18:40.711Z,92.62
2018-12-26T19:21:10.049Z,92.69
2018-12-26T19:23:39.346Z,92.71
2018-12-26T19:26:08.659Z,92.77
2018-12-26T19:28:37.959Z,92.77
2018-12-26T19:31:07.213Z,92.87
2018-12-26T19:33:36.494Z,93.09
2018-12-26T19:36:05.743Z,93.09
2018-12-26T19:38:35.032Z,93.14
2018-12-26T19:41:04.321Z,93.08
2018-12-26T19:43:33.575Z,93.32
2018-12-26T19:46:02.918Z,93.40
2018-12-26T19:48:32.205Z,93.35
2018-12-26T19:51:01.479Z,93.43
2018-12-26T19:53:30.850Z,93.55
2018-12-26T19:56:00.233Z,93.59
2018-12-26T19:58:29.532Z,93.71
2018-12-26T20:00:58.793Z,93.67
2018-12-26T20:03:28.108Z,93.74
2018-12-26T20:05:57.434Z,93.77
2018-12-26T20:08:26.719Z,93.77
2018-12-26T20:10:56.524Z,93.63
2018-12-26T20:13:25.397Z,93.77
2018-12-26T20:15:54.693Z,93.71
2018-12-26T20:18:23.989Z,93.74
2018-12-26T20:20:53.274Z,93.67
2018-12-26T20:23:22.535Z,93.64
2018-12-26T20:25:51.801Z,93.69
2018-12-26T20:28:21.151Z,93.73
2018-12-26T20:30:50.444Z,93.72
2018-12-26T20:33:19.737Z,93.72
2018-12-26T20:35:49.010Z,93.69
2018-12-26T20:38:18.344Z,93.65
2018-12-26T20:40:47.659Z,93.60
2018-12-26T20:43:16.989Z,93.58
2018-12-26T20:45:46.242Z,93.51
2018-12-26T20:48:15.554Z,93.59
2018-12-26T20:50:44.879Z,93.66
2018-12-26T20:53:14.208Z,93.43
2018-12-26T20:55:43.527Z,93.30
2018-12-26T20:58:12.851Z,93.13
2018-12-26T21:00:42.145Z,93.07
2018-12-26T21:03:11.431Z,92.78
2018-12-26T21:05:40.716Z,92.67
2018-12-26T21:08:10.012Z,92.42
2018-12-26T21:10:39.317Z,92.64
2018-12-26T21:13:08.657Z,92.51
2018-12-26T21:15:37.943Z,92.66
2018-12-26T21:18:07.223Z,92.76
2018-12-26T21:20:36.566Z,92.65
2018-12-26T21:23:05.854Z,92.61
2018-12-26T21:25:35.144Z,92.38
2018-12-26T21:28:04.429Z,92.48
2018-12-26T21:30:33.680Z,92.50
2018-12-26T21:33:02.978Z,92.58
2018-12-26T21:35:32.319Z,92.71
2018-12-26T21:38:01.645Z,92.65
2018-12-26T21:40:30.922Z,92.67
2018-12-26T21:43:00.269Z,92.64
2018-12-26T21:45:29.545Z,92.82
2018-12-26T21:47:58.898Z,92.76
2018-12-26T21:50:28.269Z,92.62
2018-12-26T21:52:57.581Z,92.65
2018-12-26T21:55:27.011Z,92.41
2018-12-26T21:57:56.306Z,92.56
2018-12-26T22:00:25.575Z,92.65
2018-12-26T22:02:54.873Z,92.62
2018-12-26T22:05:24.187Z,92.77
2018-12-26T22:07:53.485Z,92.80
2018-12-26T22:10:22.756Z,92.72
2018-12-26T22:12:52.083Z,92.55
2018-12-26T22:15:21.371Z,92.28
2018-12-26T22:17:50.707Z,92.43
2018-12-26T22:20:19.975Z,92.67
2018-12-26T22:22:49.305Z,92.69
2018-12-26T22:25:18.591Z,92.91
2018-12-26T22:27:47.933Z,92.95
2018-12-26T22:30:17.305Z,92.90
2018-12-26T22:32:46.605Z,92.94
2018-12-26T22:35:15.867Z,93.02
2018-12-26T22:37:45.176Z,92.92
2018-12-26T22:40:14.457Z,93.01
2018-12-26T22:42:43.725Z,93.01
2018-12-26T22:45:13.029Z,92.71
2018-12-26T22:47:42.313Z,92.35
2018-12-26T22:50:11.639Z,92.31
2018-12-26T22:52:40.916Z,92.22
2018-12-26T22:55:10.328Z,92.29
2018-12-26T22:57:39.609Z,92.49
2018-12-26T23:00:10.168Z,92.44
2018-12-26T23:02:39.483Z,92.69
2018-12-26T23:05:08.882Z,92.78
2018-12-26T23:07:38.188Z,92.72
2018-12-26T23:10:07.802Z,92.72
2018-12-26T23:12:37.347Z,92.74
2018-12-26T23:15:07.374Z,92.75
2018-12-26T23:17:36.683Z,92.84
2018-12-26T23:20:06.117Z,92.56
2018-12-26T23:22:35.386Z,92.73
2018-12-26T23:25:04.817Z,92.72
2018-12-26T23:27:34.099Z,92.74
2018-12-26T23:30:03.505Z,92.74
2018-12-26T23:32:32.825Z,92.77
2018-12-26T23:35:02.230Z,92.89
2018-12-26T23:37:31.541Z,92.95
2018-12-26T23:40:00.912Z,92.86
2018-12-26T23:42:30.225Z,92.80
2018-12-26T23:44:59.793Z,92.62
2018-12-26T23:47:29.125Z,92.62
2018-12-26T23:49:58.427Z,92.53
2018-12-26T23:52:27.751Z,92.47
2018-12-26T23:54:57.118Z,92.39
2018-12-26T23:57:26.571Z,92.38
2018-12-26T23:59:55.923Z,92.36
